LFLB/CMF METAR and TAF weather

Enter ICAO airport designator
Station Type Date Time Source
LFLB METAR 2020/09/28 08:00 UTC NOAA

LFLB 280800Z AUTO 19004KT 150V230 9999 BKN058 BKN068 BKN190 11/08 Q1012 TEMPO 4000 -RADZ


Station Type Date Time Source
LFLB Decoded METAR 2020/09/28 08:00 UTC NOAA

Chambery / Aix-Les-Bains, France (LFLB) 45-39N 005-53E 239M
Sep 28, 2020 - 04:00 AM EDT / 2020.09.28 0800 UTC
Wind: from the S (190 degrees) at 5 MPH (4 KT) (direction variable):0
Visibility: greater than 7 mile(s):0
Sky conditions: mostly cloudy
Temperature: 51 F (11 C)
Dew Point: 46 F (8 C)
Relative Humidity: 81%
Pressure (altimeter): 29.88 in. Hg (1012 hPa)
ob: LFLB 280800Z AUTO 19004KT 150V230 9999 BKN058 BKN068 BKN190 11/08 Q1012 TEMPO 4000 -RADZ
cycle: 8

Station Type Date Time Source
LFLB TAF 2020/09/28 06:21 UTC NOAA

TAF LFLB 280500Z 2806/2906 VRB03KT 9999 SCT030 BKN050 PROB40
TEMPO 2806/2809 4000 -RADZ BKN025 PROB40
TEMPO 2819/2901 4000 RA BKN020 PROB40
TEMPO 2902/2906 3000 MIFG BKN005

Example: see airport list